Time;durP1;ratioP1;P1;durP2;ratioP2;P2;SDS_P1;SDS_P2;PMS_P1;PMS_P2;Temp;Humidity;BMP_temperature;BMP_pressure;BME280_temperature;BME280_humidity;BME280_pressure;Samples;Min_cycle;Max_cycle;Signal;HPM_P1;HPM_P2
2022/04/26 03:38:36;;;;;;;24.35;7.78;;;6.60;99.90;;;;;;4962250;28;20039;-80
2022/04/26 03:41:02;;;;;;;23.10;8.20;;;6.50;99.90;;;;;;4954160;28;20049;-79
2022/04/26 03:43:28;;;;;;;21.55;8.07;;;6.60;99.90;;;;;;4968072;28;20045;-82
2022/04/26 03:45:54;;;;;;;24.08;7.60;;;6.50;99.90;;;;;;4967048;28;20531;-79
2022/04/26 03:48:19;;;;;;;24.88;8.77;;;6.60;99.90;;;;;;4963043;28;20078;-78
2022/04/26 03:50:45;;;;;;;24.27;8.00;;;6.60;99.90;;;;;;4967439;28;20129;-79
2022/04/26 03:53:11;;;;;;;25.73;8.05;;;6.60;99.90;;;;;;4964780;28;20113;-80
2022/04/26 03:55:37;;;;;;;20.48;7.88;;;6.60;99.90;;;;;;4951717;28;22188;-79
2022/04/26 03:58:02;;;;;;;20.73;6.88;;;6.70;99.90;;;;;;4956496;28;20480;-78
2022/04/26 04:00:31;;;;;;;19.42;7.40;;;6.70;99.90;;;;;;4950071;28;20068;-77
2022/04/26 04:02:56;;;;;;;19.90;6.90;;;6.80;99.90;;;;;;4968184;28;20181;-82
2022/04/26 04:05:22;;;;;;;19.50;6.25;;;6.60;99.90;;;;;;4975911;28;20043;-80
2022/04/26 04:07:48;;;;;;;28.20;8.10;;;6.70;99.90;;;;;;4977699;28;20089;-78
2022/04/26 04:10:13;;;;;;;12.60;6.13;;;6.70;99.90;;;;;;4964322;28;21012;-82
2022/04/26 04:12:39;;;;;;;18.83;7.20;;;6.70;99.90;;;;;;4964010;28;20454;-81
2022/04/26 04:15:05;;;;;;;15.63;6.40;;;6.60;99.90;;;;;;4965887;28;20065;-76
2022/04/26 04:17:31;;;;;;;18.90;6.63;;;6.60;99.90;;;;;;4947859;28;20046;-77
2022/04/26 04:19:56;;;;;;;17.20;6.25;;;6.60;99.90;;;;;;4967656;28;20557;-78
2022/04/26 04:22:22;;;;;;;25.42;6.90;;;6.60;99.90;;;;;;4968096;28;20085;-75
2022/04/26 04:24:48;;;;;;;15.32;5.80;;;6.60;99.90;;;;;;4967956;28;20047;-79
2022/04/26 04:27:14;;;;;;;20.92;6.30;;;6.60;99.90;;;;;;4969705;28;20027;-79
2022/04/26 04:29:40;;;;;;;11.10;4.85;;;6.60;99.90;;;;;;4961598;28;20459;-76
2022/04/26 04:32:06;;;;;;;21.55;5.63;;;6.60;99.90;;;;;;4980481;28;20050;-78
2022/04/26 04:34:31;;;;;;;13.38;5.22;;;6.60;99.90;;;;;;4965995;28;20492;-82
2022/04/26 04:36:57;;;;;;;19.70;5.68;;;6.60;99.90;;;;;;4966311;28;20053;-81
2022/04/26 04:39:23;;;;;;;19.95;6.30;;;6.60;99.90;;;;;;4952341;28;20038;-79
2022/04/26 04:41:52;;;;;;;20.55;6.18;;;6.60;99.90;;;;;;4963906;28;20560;-77
2022/04/26 04:44:22;;;;;;;16.27;5.78;;;6.60;99.90;;;;;;4964316;28;20051;-80
2022/04/26 04:46:49;;;;;;;22.45;5.43;;;6.60;99.90;;;;;;4970299;28;20057;-75
2022/04/26 04:49:15;;;;;;;11.90;5.85;;;6.60;99.90;;;;;;4977074;28;20047;-77
2022/04/26 04:51:40;;;;;;;15.95;6.07;;;6.70;99.90;;;;;;4968269;28;20038;-80
2022/04/26 04:54:06;;;;;;;14.50;5.78;;;6.60;99.90;;;;;;4981605;28;20054;-75
2022/04/26 04:56:32;;;;;;;14.98;6.03;;;6.70;99.90;;;;;;4983353;28;20049;-74
2022/04/26 04:58:57;;;;;;;17.98;6.05;;;6.70;99.90;;;;;;4965011;28;20386;-78
2022/04/26 05:01:23;;;;;;;18.65;5.15;;;6.70;99.90;;;;;;4964995;28;20482;-77
2022/04/26 05:03:51;;;;;;;16.52;5.68;;;6.80;99.90;;;;;;4947273;28;20386;-81
2022/04/26 05:06:18;;;;;;;17.00;5.72;;;6.80;99.90;;;;;;4963254;28;20042;-81
2022/04/26 05:08:44;;;;;;;12.18;5.40;;;6.80;99.90;;;;;;4965659;28;20054;-79
2022/04/26 05:11:10;;;;;;;18.23;6.20;;;6.80;99.90;;;;;;4964496;28;20145;-82
2022/04/26 05:13:37;;;;;;;12.73;5.20;;;6.80;99.90;;;;;;4951213;28;20153;-78
2022/04/26 05:16:03;;;;;;;15.25;5.68;;;6.80;99.90;;;;;;4970643;28;20043;-81
2022/04/26 05:18:29;;;;;;;20.40;5.68;;;6.90;99.90;;;;;;4937196;28;20069;-82
2022/04/26 05:20:55;;;;;;;16.02;5.30;;;6.90;99.90;;;;;;4951206;28;20041;-78
2022/04/26 05:26:05;;;;;;;13.65;5.80;;;7.00;99.90;;;;;;4968503;28;20445;-81
2022/04/26 05:28:32;;;;;;;14.90;5.95;;;7.10;99.90;;;;;;4972495;28;20164;-80
2022/04/26 05:30:58;;;;;;;33.25;6.45;;;7.10;99.90;;;;;;4966321;28;20069;-81
2022/04/26 05:33:27;;;;;;;16.63;5.90;;;7.80;99.90;;;;;;4969577;28;20466;-81
2022/04/26 05:35:53;;;;;;;17.10;7.22;;;7.30;99.90;;;;;;4964605;28;20108;-83
2022/04/26 05:38:19;;;;;;;19.38;6.35;;;8.00;99.90;;;;;;4968408;28;20046;-82
2022/04/26 05:40:45;;;;;;;13.10;5.38;;;7.90;99.90;;;;;;4966605;28;20046;-81
2022/04/26 05:43:11;;;;;;;17.83;6.00;;;7.30;99.90;;;;;;4984323;28;20051;-85
2022/04/26 05:45:37;;;;;;;19.98;6.20;;;7.40;99.90;;;;;;4966337;28;20058;-81
2022/04/26 05:48:04;;;;;;;13.57;5.60;;;7.70;99.90;;;;;;4966070;28;20121;-87
2022/04/26 05:50:30;;;;;;;18.70;5.50;;;7.40;99.90;;;;;;4969852;28;20123;-85
2022/04/26 05:52:55;;;;;;;14.23;5.40;;;7.40;99.90;;;;;;4974465;28;20092;-83
2022/04/26 05:55:21;;;;;;;16.15;5.20;;;8.10;99.90;;;;;;4983672;28;20121;-85
2022/04/26 05:57:47;;;;;;;25.00;5.28;;;8.10;99.90;;;;;;4979540;28;20523;-78
2022/04/26 06:00:14;;;;;;;15.77;4.75;;;7.60;99.90;;;;;;4967928;28;20054;-77
2022/04/26 06:02:41;;;;;;;14.48;4.60;;;7.70;99.90;;;;;;4973983;28;20406;-84
2022/04/26 06:05:07;;;;;;;11.00;4.43;;;8.00;99.90;;;;;;4985707;28;20058;-84
2022/04/26 06:07:32;;;;;;;17.45;4.07;;;7.80;99.90;;;;;;4968487;28;20077;-80
2022/04/26 06:09:58;;;;;;;13.23;3.92;;;7.90;99.90;;;;;;4950073;28;20058;-78
2022/04/26 06:12:26;;;;;;;14.07;4.43;;;8.00;99.90;;;;;;4969153;28;20054;-83
2022/04/26 06:14:57;;;;;;;11.75;4.20;;;8.00;99.90;;;;;;4967058;28;20497;-82
2022/04/26 06:17:23;;;;;;;13.82;3.60;;;8.10;99.90;;;;;;4953060;28;20342;-85
2022/04/26 06:19:49;;;;;;;12.10;3.85;;;8.20;99.90;;;;;;4960941;28;20070;-81
2022/04/26 06:22:16;;;;;;;10.82;3.60;;;8.80;99.90;;;;;;4967314;28;20486;-82
2022/04/26 06:24:45;;;;;;;11.32;3.75;;;8.30;99.90;;;;;;4983395;28;20081;-84
2022/04/26 06:27:10;;;;;;;16.40;4.43;;;8.40;99.90;;;;;;4981917;28;20399;-82
2022/04/26 06:29:36;;;;;;;11.55;3.72;;;8.50;99.90;;;;;;4950366;28;20042;-82
2022/04/26 06:32:02;;;;;;;10.20;3.88;;;8.50;99.90;;;;;;4967161;28;20053;-79
2022/04/26 06:34:28;;;;;;;10.52;4.20;;;8.60;99.90;;;;;;4952561;28;20062;-83
2022/04/26 06:36:54;;;;;;;13.02;3.92;;;8.50;99.90;;;;;;4961503;28;20529;-81
2022/04/26 06:39:20;;;;;;;11.45;3.80;;;8.60;99.90;;;;;;4976888;28;20236;-82
2022/04/26 06:41:46;;;;;;;15.68;3.33;;;8.60;99.90;;;;;;4983978;28;20065;-85
2022/04/26 06:44:14;;;;;;;13.95;2.90;;;8.60;99.90;;;;;;4970930;28;20113;-77
2022/04/26 06:46:40;;;;;;;9.02;2.80;;;8.60;99.90;;;;;;4970376;28;20045;-79
2022/04/26 06:49:06;;;;;;;13.55;3.13;;;8.60;99.90;;;;;;4940749;28;20046;-82
2022/04/26 06:51:35;;;;;;;10.43;3.15;;;8.50;99.90;;;;;;4949704;28;20062;-82
2022/04/26 06:54:01;;;;;;;7.85;3.00;;;8.70;99.90;;;;;;4987584;28;20085;-81
2022/04/26 06:56:27;;;;;;;10.85;2.80;;;8.50;99.90;;;;;;4970405;28;20058;-80
2022/04/26 06:58:53;;;;;;;12.45;3.20;;;8.60;99.90;;;;;;4964881;28;20442;-85
2022/04/26 07:01:18;;;;;;;14.52;3.20;;;8.60;99.90;;;;;;4953659;28;20084;-83
2022/04/26 07:03:44;;;;;;;11.90;2.90;;;8.70;99.90;;;;;;4968104;28;20490;-84
2022/04/26 07:06:10;;;;;;;15.52;3.00;;;8.90;99.90;;;;;;4967134;28;20046;-82
2022/04/26 07:08:36;;;;;;;11.65;2.95;;;8.90;99.90;;;;;;4975550;28;20042;-85
2022/04/26 07:11:01;;;;;;;6.80;2.63;;;9.00;99.90;;;;;;4981759;28;20098;-85
2022/04/26 07:13:27;;;;;;;18.95;3.35;;;9.00;99.90;;;;;;4961582;28;20050;-82
2022/04/26 07:15:53;;;;;;;6.53;2.75;;;9.00;99.90;;;;;;4985331;28;20390;-82
2022/04/26 07:18:18;;;;;;;12.05;3.22;;;9.70;99.90;;;;;;4969673;28;20446;-80
2022/04/26 07:20:44;;;;;;;6.97;2.95;;;9.10;99.90;;;;;;4975883;28;20045;-79
2022/04/26 07:23:12;;;;;;;9.75;3.08;;;9.70;99.90;;;;;;4969543;28;20077;-79
2022/04/26 07:25:38;;;;;;;7.57;2.85;;;9.90;99.90;;;;;;4975415;28;20039;-85
2022/04/26 07:28:04;;;;;;;10.40;3.50;;;9.40;99.90;;;;;;4983070;28;20120;-78
2022/04/26 07:30:38;;;;;;;11.07;3.45;;;9.60;99.90;;;;;;4972195;28;20118;-77
2022/04/26 07:35:50;;;;;;;7.25;3.05;;;9.50;99.90;;;;;;4967597;28;20113;-82
2022/04/26 07:38:16;;;;;;;14.90;3.70;;;9.50;99.90;;;;;;4987889;28;20042;-79
2022/04/26 07:40:43;;;;;;;11.18;3.55;;;9.30;99.90;;;;;;4956784;28;20442;-79
2022/04/26 07:43:08;;;;;;;10.35;2.92;;;9.40;99.90;;;;;;4975405;28;20125;-77
2022/04/26 07:45:38;;;;;;;7.88;3.28;;;9.40;99.90;;;;;;4970995;28;20134;-81
2022/04/26 07:48:06;;;;;;;9.02;3.67;;;9.70;99.90;;;;;;4986372;28;20060;-84
2022/04/26 07:50:33;;;;;;;7.05;2.60;;;9.50;99.90;;;;;;4949042;28;20038;-83
2022/04/26 07:53:01;;;;;;;8.52;3.00;;;9.40;99.90;;;;;;4965229;28;20078;-84
2022/04/26 07:55:28;;;;;;;6.05;2.85;;;10.10;99.90;;;;;;4985848;28;20049;-83
2022/04/26 07:57:53;;;;;;;7.93;3.00;;;9.50;99.90;;;;;;4985760;28;20050;-85
2022/04/26 08:00:19;;;;;;;7.68;2.70;;;9.60;99.90;;;;;;4984747;28;20497;-83
2022/04/26 08:02:45;;;;;;;10.57;3.10;;;9.60;99.90;;;;;;4991686;28;20038;-82
2022/04/26 08:05:14;;;;;;;7.32;3.40;;;9.60;99.90;;;;;;4973927;28;20069;-82
2022/04/26 08:07:41;;;;;;;8.18;2.55;;;9.70;99.90;;;;;;4957937;28;20116;-84
2022/04/26 08:10:11;;;;;;;10.55;3.92;;;9.80;99.90;;;;;;4958452;28;20196;-82
2022/04/26 08:12:38;;;;;;;10.48;2.90;;;10.00;99.90;;;;;;4991614;28;20030;-84
2022/04/26 08:15:06;;;;;;;8.43;2.90;;;10.40;99.90;;;;;;4967204;28;20065;-84
2022/04/26 08:17:31;;;;;;;10.93;3.35;;;10.00;99.90;;;;;;4975184;28;20050;-86
2022/04/26 08:19:57;;;;;;;14.55;3.00;;;10.30;99.90;;;;;;4973361;28;20047;-83
2022/04/26 08:22:23;;;;;;;10.20;2.47;;;10.30;99.90;;;;;;4991355;28;20046;-85
2022/04/26 08:27:33;;;;;;;10.02;3.17;;;10.80;99.90;;;;;;4992352;28;20066;-86
2022/04/26 08:30:03;;;;;;;8.75;2.72;;;10.40;99.90;;;;;;4974182;28;20070;-85
2022/04/26 08:32:44;;;;;;;11.77;3.08;;;10.40;99.90;;;;;;4991342;28;20473;-86
2022/04/26 08:35:12;;;;;;;12.00;3.30;;;10.40;99.90;;;;;;4977427;28;20412;-83
2022/04/26 08:37:38;;;;;;;8.57;3.00;;;10.90;99.90;;;;;;4967943;28;20050;-86
2022/04/26 08:40:07;;;;;;;9.90;3.03;;;10.80;99.90;;;;;;4993047;28;20509;-87
2022/04/26 08:42:44;;;;;;;8.98;2.90;;;10.70;99.90;;;;;;4965177;28;20074;-85
2022/04/26 08:45:15;;;;;;;8.00;2.40;;;10.70;99.90;;;;;;4965091;28;20051;-83
2022/04/26 08:53:15;;;;;;;8.20;2.33;;;10.60;99.90;;;;;;4973027;28;20062;-84
2022/04/26 08:55:43;;;;;;;9.85;2.25;;;10.80;99.90;;;;;;4975245;28;20113;-84
2022/04/26 08:58:11;;;;;;;8.70;2.92;;;11.00;99.90;;;;;;4975343;28;20088;-80
2022/04/26 09:00:41;;;;;;;9.07;2.50;;;10.80;99.90;;;;;;4957862;28;20120;-84
2022/04/26 09:03:08;;;;;;;8.40;2.30;;;10.20;99.90;;;;;;4956876;28;20083;-82
2022/04/26 09:05:35;;;;;;;6.95;2.70;;;10.20;99.90;;;;;;4940266;28;20110;-80
2022/04/26 09:08:20;;;;;;;5.95;2.20;;;10.30;99.90;;;;;;4990036;28;20050;-81
2022/04/26 09:10:47;;;;;;;6.70;2.65;;;10.20;99.90;;;;;;4973737;28;20049;-82
2022/04/26 09:13:15;;;;;;;6.38;2.40;;;10.50;99.90;;;;;;4972167;28;20046;-84
2022/04/26 09:15:42;;;;;;;4.25;2.28;;;10.20;99.90;;;;;;4959982;28;20580;-80
2022/04/26 09:18:30;;;;;;;5.90;2.70;;;10.30;99.90;;;;;;4974644;28;20054;-80
2022/04/26 09:21:05;;;;;;;5.85;2.28;;;10.20;99.90;;;;;;4990891;28;20039;-85
2022/04/26 09:23:32;;;;;;;9.43;2.95;;;10.50;99.90;;;;;;4953206;28;20125;-80
2022/04/26 09:26:12;;;;;;;9.32;2.80;;;10.90;99.90;;;;;;4957515;28;20073;-82
2022/04/26 09:28:47;;;;;;;11.48;2.65;;;10.60;99.90;;;;;;4973481;28;20382;-79
2022/04/26 09:31:16;;;;;;;;;;;10.70;99.90;;;;;;4991028;28;20177;-80
2022/04/26 09:33:47;;;;;;;5.85;2.45;;;10.50;99.90;;;;;;4988005;28;19960;-81
2022/04/26 09:36:14;;;;;;;8.90;2.30;;;10.40;99.90;;;;;;4976118;28;20042;-82
2022/04/26 09:38:48;;;;;;;5.07;2.20;;;10.70;99.90;;;;;;4993909;28;20501;-83
2022/04/26 09:41:15;;;;;;;3.78;2.20;;;10.80;99.90;;;;;;5009517;28;20393;-85
2022/04/26 09:43:41;;;;;;;5.38;2.35;;;11.00;99.90;;;;;;4976261;28;20058;-80
2022/04/26 09:46:08;;;;;;;6.88;2.30;;;11.10;99.90;;;;;;4972964;28;20050;-81
2022/04/26 09:48:39;;;;;;;4.90;2.33;;;11.40;99.90;;;;;;4957128;28;20078;-84
2022/04/26 09:51:08;;;;;;;10.70;2.70;;;11.80;99.90;;;;;;4972117;28;20156;-80
2022/04/26 09:53:35;;;;;;;9.27;2.22;;;11.70;99.90;;;;;;4976479;28;20509;-84
2022/04/26 09:56:02;;;;;;;9.35;2.45;;;11.70;99.90;;;;;;4974098;28;20072;-81
2022/04/26 09:58:29;;;;;;;7.72;2.40;;;11.50;99.90;;;;;;4974518;28;20133;-81
2022/04/26 10:01:04;;;;;;;6.78;2.25;;;11.80;99.90;;;;;;4964712;28;20058;-80
2022/04/26 10:03:39;;;;;;;4.10;2.20;;;11.70;99.90;;;;;;4966124;28;20066;-77
2022/04/26 10:06:06;;;;;;;7.15;2.47;;;12.00;99.90;;;;;;4967024;28;20131;-80
2022/04/26 10:08:35;;;;;;;7.57;2.22;;;12.20;99.90;;;;;;4985584;28;20114;-80
2022/04/26 10:11:02;;;;;;;9.77;2.30;;;11.90;99.90;;;;;;4993056;28;20193;-81
2022/04/26 10:13:39;;;;;;;9.13;2.67;;;11.70;99.90;;;;;;4957475;28;20133;-84
2022/04/26 10:16:21;;;;;;;11.50;2.67;;;11.70;99.90;;;;;;4960687;28;20247;-82
2022/04/26 10:18:48;;;;;;;9.02;2.40;;;11.50;99.90;;;;;;4958826;28;20446;-81
2022/04/26 10:21:22;;;;;;;6.20;2.40;;;11.40;99.90;;;;;;4957692;28;20078;-80
2022/04/26 10:23:51;;;;;;;6.38;2.53;;;11.40;99.90;;;;;;4990162;28;20054;-82
2022/04/26 10:26:23;;;;;;;9.60;2.85;;;11.30;99.90;;;;;;4993630;28;20046;-83
2022/04/26 10:28:59;;;;;;;5.68;1.90;;;11.70;99.90;;;;;;4977615;28;20041;-85
2022/04/26 10:31:56;;;;;;;8.02;2.30;;;12.10;99.90;;;;;;4960002;28;20459;-83
2022/04/26 10:34:26;;;;;;;7.22;2.55;;;11.90;99.90;;;;;;4947829;28;20042;-82
2022/04/26 10:37:02;;;;;;;8.15;2.50;;;12.10;99.90;;;;;;4942832;28;20073;-81
2022/04/26 10:39:38;;;;;;;4.43;2.60;;;12.20;99.90;;;;;;4942640;28;20058;-83
2022/04/26 10:42:30;;;;;;;8.88;2.38;;;12.00;99.90;;;;;;4962248;28;20210;-84
2022/04/26 10:45:08;;;;;;;6.38;2.58;;;11.60;99.90;;;;;;4976727;28;20122;-85
2022/04/26 10:47:34;;;;;;;11.07;2.90;;;11.40;99.90;;;;;;4973204;28;20065;-85
2022/04/26 10:50:02;;;;;;;5.82;2.40;;;11.60;99.90;;;;;;4947718;28;20051;-80
2022/04/26 10:52:27;;;;;;;5.05;2.20;;;12.40;99.90;;;;;;4947163;28;20042;-81
2022/04/26 10:54:58;;;;;;;5.68;2.20;;;12.40;99.90;;;;;;4961909;28;20053;-84
2022/04/26 10:57:26;;;;;;;6.55;2.60;;;12.70;99.90;;;;;;4959991;28;20137;-81
2022/04/26 11:00:06;;;;;;;5.53;2.28;;;12.50;99.90;;;;;;4963968;28;20049;-83
2022/04/26 11:02:37;;;;;;;4.25;2.17;;;12.40;99.90;;;;;;4960690;28;20078;-85
2022/04/26 11:05:10;;;;;;;7.22;2.67;;;12.50;99.90;;;;;;4957920;28;20053;-82
2022/04/26 11:07:41;;;;;;;8.80;2.28;;;13.00;99.90;;;;;;4958726;28;20141;-84
2022/04/26 11:10:11;;;;;;;8.93;2.70;;;12.90;99.90;;;;;;4948307;28;20050;-85
2022/04/26 11:12:38;;;;;;;7.38;2.60;;;12.40;99.90;;;;;;4957816;28;20085;-82
2022/04/26 11:15:05;;;;;;;9.20;2.75;;;12.20;99.90;;;;;;4985420;28;20039;-85
2022/04/26 11:17:31;;;;;;;6.70;2.30;;;12.40;99.90;;;;;;4957512;28;20050;-85
2022/04/26 11:19:59;;;;;;;5.93;2.40;;;12.70;99.90;;;;;;4973177;28;20413;-84
2022/04/26 11:22:27;;;;;;;5.80;2.17;;;12.90;99.90;;;;;;4954180;28;20121;-82
2022/04/26 11:28:11;;;;;;;3.97;2.00;;;13.40;99.90;;;;;;4985864;28;20058;-75
2022/04/26 11:30:45;;;;;;;5.50;2.28;;;13.40;99.90;;;;;;4978555;28;20054;-82
2022/04/26 11:33:15;;;;;;;5.05;2.13;;;13.40;99.90;;;;;;4949928;28;20058;-78
2022/04/26 11:35:42;;;;;;;7.70;2.20;;;13.60;99.90;;;;;;4948623;28;20053;-78
2022/04/26 11:38:15;;;;;;;5.07;2.08;;;13.00;99.90;;;;;;4959925;28;20093;-79
2022/04/26 11:40:46;;;;;;;10.70;2.22;;;12.70;99.90;;;;;;4984852;28;20406;-78
2022/04/26 11:43:14;;;;;;;7.53;2.40;;;13.00;99.90;;;;;;4964086;28;20054;-76
2022/04/26 11:45:42;;;;;;;5.53;2.13;;;13.50;99.90;;;;;;4950366;28;20044;-78
2022/04/26 11:48:17;;;;;;;8.00;2.30;;;14.20;99.90;;;;;;4968142;28;20038;-79
2022/04/26 11:50:46;;;;;;;5.82;2.40;;;14.00;99.90;;;;;;4968572;28;20052;-83
2022/04/26 11:53:17;;;;;;;5.28;1.92;;;14.20;99.90;;;;;;4960216;28;20110;-84
2022/04/26 11:55:44;;;;;;;7.00;2.53;;;14.10;99.90;;;;;;4948102;28;20046;-85
2022/04/26 11:58:21;;;;;;;4.28;2.00;;;13.70;99.90;;;;;;4951020;28;20568;-81
2022/04/26 12:00:56;;;;;;;5.35;2.20;;;13.70;99.90;;;;;;4979773;28;20050;-78
2022/04/26 12:03:30;;;;;;;5.47;2.20;;;13.70;99.90;;;;;;4991859;28;20105;-81
2022/04/26 12:06:01;;;;;;;5.38;2.08;;;13.90;99.90;;;;;;4958235;28;20106;-81
2022/04/26 12:08:28;;;;;;;5.65;2.35;;;13.90;99.90;;;;;;4974539;28;20039;-79
2022/04/26 12:11:24;;;;;;;7.88;2.33;;;14.20;99.90;;;;;;4965749;28;20564;-85
2022/04/26 12:14:11;;;;;;;6.30;1.90;;;14.70;99.90;;;;;;4953341;28;20061;-83
2022/04/26 12:16:48;;;;;;;3.65;2.00;;;15.00;99.90;;;;;;4953541;28;20046;-76
2022/04/26 12:19:15;;;;;;;6.90;2.17;;;15.00;99.30;;;;;;4965202;28;20100;-78
2022/04/26 12:21:54;;;;;;;8.40;2.60;;;15.00;99.90;;;;;;4951589;28;20057;-76
2022/04/26 12:24:23;;;;;;;6.07;1.90;;;15.00;98.90;;;;;;4948296;28;20053;-77
2022/04/26 12:27:04;;;;;;;133.73;6.38;;;15.30;99.70;;;;;;4980178;28;20051;-79
2022/04/26 12:29:35;;;;;;;23.00;3.38;;;15.40;99.30;;;;;;4967441;28;20078;-78
2022/04/26 12:32:05;;;;;;;13.00;2.95;;;15.30;99.90;;;;;;4968884;28;20117;-82
2022/04/26 12:34:32;;;;;;;5.97;2.30;;;14.70;99.90;;;;;;4960546;28;20382;-77
2022/04/26 12:37:11;;;;;;;6.82;2.28;;;15.00;99.90;;;;;;4950263;28;20055;-75
2022/04/26 12:39:41;;;;;;;5.82;2.10;;;15.20;99.90;;;;;;4950996;28;20165;-76
2022/04/26 12:42:08;;;;;;;7.05;2.40;;;15.20;99.60;;;;;;4948021;28;20489;-81
2022/04/26 12:44:35;;;;;;;6.68;2.10;;;15.10;99.60;;;;;;4949855;28;20106;-76
2022/04/26 12:52:47;;;;;;;13.82;2.78;;;14.60;99.90;;;;;;4955670;28;20058;-78
2022/04/26 12:55:27;;;;;;;9.68;2.40;;;15.10;99.90;;;;;;4966373;28;20073;-78
2022/04/26 12:57:54;;;;;;;7.65;2.25;;;15.20;99.90;;;;;;4972789;28;20046;-78
2022/04/26 13:00:24;;;;;;;7.13;2.20;;;15.40;99.90;;;;;;4958204;28;20068;-78
2022/04/26 13:02:53;;;;;;;8.82;2.70;;;15.90;99.70;;;;;;4955393;28;20050;-79
2022/04/26 13:05:22;;;;;;;7.10;2.45;;;15.00;98.80;;;;;;4952151;28;20069;-76
2022/04/26 13:07:48;;;;;;;7.53;2.28;;;16.00;99.90;;;;;;4962384;28;20053;-77
2022/04/26 13:10:16;;;;;;;6.47;2.45;;;16.30;98.80;;;;;;4964514;28;20564;-78
2022/04/26 13:12:42;;;;;;;5.63;2.08;;;16.10;98.20;;;;;;4970846;28;20061;-77
2022/04/26 13:15:08;;;;;;;8.13;3.35;;;15.80;98.50;;;;;;4950476;28;20420;-78
2022/04/26 13:17:36;;;;;;;5.10;2.35;;;15.00;99.50;;;;;;4968641;28;20058;-78
2022/04/26 13:20:06;;;;;;;8.63;3.90;;;14.80;99.80;;;;;;4952684;28;20081;-76
2022/04/26 13:22:36;;;;;;;5.75;2.13;;;14.90;99.60;;;;;;4968936;28;20050;-75
2022/04/26 13:25:05;;;;;;;5.65;2.40;;;14.30;99.90;;;;;;4959349;28;20046;-78
2022/04/26 13:27:31;;;;;;;7.72;2.92;;;14.10;99.90;;;;;;4970126;28;20101;-79
2022/04/26 13:29:58;;;;;;;4.65;2.38;;;14.40;99.90;;;;;;4972455;28;20465;-79
2022/04/26 13:32:25;;;;;;;12.40;2.95;;;14.00;99.90;;;;;;4970330;28;20414;-78
2022/04/26 13:34:54;;;;;;;8.80;3.20;;;13.70;99.90;;;;;;4963105;28;20046;-77
2022/04/26 13:37:20;;;;;;;7.43;2.60;;;13.70;99.90;;;;;;4974642;28;20568;-82
2022/04/26 13:39:45;;;;;;;9.13;2.72;;;13.70;99.90;;;;;;4949529;28;20050;-80
2022/04/26 13:42:15;;;;;;;7.00;2.35;;;13.60;99.90;;;;;;4950033;28;20092;-79
2022/04/26 13:44:42;;;;;;;7.82;2.75;;;13.70;99.90;;;;;;4960338;28;20065;-79
2022/04/26 13:47:11;;;;;;;7.63;2.53;;;13.70;99.90;;;;;;4964310;28;20489;-77
2022/04/26 13:49:37;;;;;;;8.73;2.83;;;14.00;99.90;;;;;;4983776;28;20446;-79
2022/04/26 13:52:09;;;;;;;7.72;2.45;;;14.70;99.90;;;;;;4955868;28;20494;-79
2022/04/26 13:54:34;;;;;;;5.85;2.45;;;15.00;99.90;;;;;;4966088;28;20173;-78
2022/04/26 13:57:00;;;;;;;7.72;2.80;;;14.30;99.90;;;;;;4967464;28;20403;-82
2022/04/26 13:59:26;;;;;;;8.32;2.88;;;13.90;99.90;;;;;;4946000;28;20435;-78
2022/04/26 14:01:53;;;;;;;11.93;2.85;;;13.40;99.90;;;;;;4958236;28;20470;-81
2022/04/26 14:04:22;;;;;;;5.45;2.38;;;13.20;99.90;;;;;;4961843;28;21916;-82
2022/04/26 14:06:49;;;;;;;6.32;2.47;;;13.30;99.90;;;;;;4964481;28;20074;-80
2022/04/26 14:09:15;;;;;;;5.93;2.70;;;13.10;99.90;;;;;;4954757;28;20380;-79
2022/04/26 14:23:35;;;;;;;7.00;2.67;;;12.30;99.90;;;;;;4969261;28;20046;-81
2022/04/26 14:26:03;;;;;;;6.10;2.53;;;12.40;99.90;;;;;;4952729;28;20046;-78
2022/04/26 14:28:28;;;;;;;10.07;2.80;;;12.90;99.90;;;;;;4956130;28;20394;-77
2022/04/26 14:30:54;;;;;;;6.95;2.10;;;13.70;99.90;;;;;;4966484;28;20058;-79
2022/04/26 14:33:22;;;;;;;9.63;2.15;;;14.10;99.90;;;;;;4954706;28;20058;-79
2022/04/26 14:35:51;;;;;;;5.85;2.25;;;13.70;99.90;;;;;;4953204;28;20046;-79
2022/04/26 14:38:17;;;;;;;10.90;2.42;;;13.40;99.90;;;;;;4953583;28;20184;-82
2022/04/26 14:40:43;;;;;;;9.05;2.25;;;13.70;99.90;;;;;;4965358;28;20137;-82
2022/04/26 14:43:09;;;;;;;7.25;2.28;;;14.20;99.90;;;;;;4970216;28;20043;-81
2022/04/26 14:45:44;;;;;;;8.63;2.50;;;14.20;99.90;;;;;;4968183;28;20045;-81
2022/04/26 14:48:10;;;;;;;7.32;2.53;;;14.50;99.90;;;;;;4971439;28;20050;-82
2022/04/26 14:50:37;;;;;;;8.57;2.10;;;14.80;99.90;;;;;;4967295;28;20047;-78
2022/04/26 14:53:03;;;;;;;7.68;2.45;;;15.20;99.90;;;;;;4951235;28;20453;-79
2022/04/26 14:55:29;;;;;;;8.13;2.28;;;14.80;99.90;;;;;;4954125;28;20066;-78
2022/04/26 14:57:55;;;;;;;5.53;2.28;;;15.10;99.90;;;;;;4984664;28;20534;-79
2022/04/26 15:00:21;;;;;;;5.47;2.35;;;15.00;99.90;;;;;;4973879;28;20054;-77
2022/04/26 15:02:46;;;;;;;6.97;2.40;;;14.40;99.90;;;;;;4973564;28;20035;-76
2022/04/26 15:05:14;;;;;;;11.45;2.70;;;14.20;99.90;;;;;;4972613;28;20050;-77
2022/04/26 15:10:25;;;;;;;8.93;2.40;;;14.00;99.90;;;;;;4967824;28;20050;-81
2022/04/26 15:18:21;;;;;;;5.33;2.23;;;13.80;99.90;;;;;;4968912;28;20058;-76
2022/04/26 15:20:51;;;;;;;7.05;2.30;;;13.70;99.90;;;;;;4968211;28;20081;-81
2022/04/26 15:23:18;;;;;;;4.43;1.90;;;13.80;99.90;;;;;;4951888;28;20069;-80
2022/04/26 15:26:03;;;;;;;5.65;2.33;;;13.40;99.90;;;;;;4969519;28;20410;-81
2022/04/26 15:28:30;;;;;;;7.43;2.40;;;13.30;99.90;;;;;;4952467;28;20046;-79
2022/04/26 15:30:56;;;;;;;7.30;2.55;;;13.70;99.90;;;;;;4955585;28;20090;-80
2022/04/26 15:33:23;;;;;;;9.13;2.38;;;13.70;99.90;;;;;;4968606;28;20050;-77
2022/04/26 15:35:49;;;;;;;7.72;2.83;;;13.50;99.90;;;;;;4956200;28;20149;-78
2022/04/26 15:38:15;;;;;;;8.98;2.50;;;14.00;99.90;;;;;;4970350;28;20192;-76
2022/04/26 15:40:42;;;;;;;8.15;2.28;;;14.50;99.90;;;;;;4970584;28;20477;-78
2022/04/26 15:43:30;;;;;;;7.65;2.50;;;14.50;99.90;;;;;;4969265;28;20054;-78
2022/04/26 15:45:56;;;;;;;7.47;2.70;;;14.10;99.90;;;;;;4949720;28;20073;-78
2022/04/26 15:48:23;;;;;;;4.80;2.20;;;13.60;99.90;;;;;;4965659;28;20411;-79
2022/04/26 15:50:48;;;;;;;4.82;2.30;;;13.40;99.90;;;;;;4968778;28;20046;-79
2022/04/26 15:53:15;;;;;;;8.18;2.42;;;13.60;99.90;;;;;;4966336;28;20441;-78
2022/04/26 15:55:41;;;;;;;6.68;2.40;;;14.10;99.90;;;;;;4963957;28;20046;-79
2022/04/26 15:58:08;;;;;;;6.07;2.22;;;14.30;99.90;;;;;;4973890;28;20101;-79
2022/04/26 16:00:34;;;;;;;6.70;2.17;;;14.30;99.90;;;;;;4968874;28;20077;-80
2022/04/26 16:03:01;;;;;;;7.88;2.17;;;14.00;99.90;;;;;;4958249;28;20058;-79
2022/04/26 16:05:28;;;;;;;8.73;2.63;;;13.80;99.90;;;;;;4971492;28;20429;-83
2022/04/26 16:07:54;;;;;;;6.82;2.42;;;13.50;99.90;;;;;;4975047;28;20497;-76
2022/04/26 16:21:17;;;;;;;8.88;2.35;;;12.30;99.90;;;;;;4990244;28;20312;-80
2022/04/26 16:27:26;;;;;;;7.35;2.85;;;12.20;99.90;;;;;;4991974;28;20125;-77
2022/04/26 16:29:52;;;;;;;6.85;2.58;;;12.10;99.90;;;;;;4956769;28;20458;-79
2022/04/26 16:32:18;;;;;;;8.27;2.67;;;12.10;99.90;;;;;;4976381;28;20398;-78
2022/04/26 16:34:43;;;;;;;9.65;2.67;;;12.00;99.90;;;;;;4968755;28;20050;-76
2022/04/26 16:37:09;;;;;;;4.95;2.28;;;12.00;99.90;;;;;;4975102;28;20050;-76
2022/04/26 16:39:35;;;;;;;7.03;2.42;;;12.00;99.90;;;;;;4958686;28;20061;-77
2022/04/26 16:42:00;;;;;;;6.45;2.50;;;11.90;99.90;;;;;;4958668;28;20116;-78
2022/04/26 16:44:26;;;;;;;7.93;2.33;;;11.80;99.90;;;;;;4958377;28;20027;-77
2022/04/26 16:46:52;;;;;;;8.57;2.92;;;11.60;99.90;;;;;;4968272;28;20478;-81
2022/04/26 16:49:18;;;;;;;7.20;3.10;;;11.50;99.90;;;;;;4973125;28;20034;-79
2022/04/26 16:51:44;;;;;;;8.27;2.42;;;11.80;99.90;;;;;;4952922;28;20038;-78
2022/04/26 16:54:11;;;;;;;8.80;2.42;;;11.80;99.90;;;;;;4967830;28;20077;-77
2022/04/26 16:56:37;;;;;;;7.18;2.63;;;12.10;99.90;;;;;;4968538;28;20046;-80
2022/04/26 16:59:03;;;;;;;8.10;2.60;;;12.20;99.90;;;;;;4970824;28;20041;-80
2022/04/26 17:01:30;;;;;;;6.43;2.53;;;12.30;99.90;;;;;;4960766;28;20044;-78
2022/04/26 17:03:57;;;;;;;7.72;2.42;;;12.70;99.90;;;;;;4976344;28;20137;-76
2022/04/26 17:06:22;;;;;;;8.65;2.30;;;12.60;99.90;;;;;;4973403;28;20034;-75
2022/04/26 17:08:48;;;;;;;9.18;2.42;;;12.70;99.90;;;;;;4970190;28;20418;-76
2022/04/26 17:13:58;;;;;;;4.07;1.92;;;12.90;99.90;;;;;;4966131;28;20057;-76
2022/04/26 17:16:24;;;;;;;6.65;2.72;;;12.60;99.90;;;;;;4969748;28;20038;-76
2022/04/26 17:18:50;;;;;;;11.10;2.63;;;12.30;99.90;;;;;;4967491;28;20042;-76
2022/04/26 17:21:16;;;;;;;7.75;2.65;;;12.00;99.90;;;;;;4944180;28;20140;-75
2022/04/26 17:23:41;;;;;;;5.85;2.40;;;11.50;99.90;;;;;;4949455;28;20086;-75
2022/04/26 17:26:07;;;;;;;8.15;2.50;;;11.20;99.90;;;;;;4970907;28;20045;-74
2022/04/26 17:28:32;;;;;;;7.13;2.60;;;11.00;99.90;;;;;;4972117;28;20046;-75
2022/04/26 17:30:58;;;;;;;7.93;2.85;;;10.90;99.90;;;;;;4951649;28;20038;-75